Terminal Aerodrome Forecast
Issued by NWS

Home | Current Version | Previous Version | Graphics & Text | Print | Product List | Glossary On
Versions: 1 2 3 4 5 6 7 8 9 10 11 12 13 14 15 16 17 18
000
FTUS41 KCLE 162323
TAFFDY
TAF
KFDY 162323Z 1700/1724 VRB04KT P6SM FEW080
      TEMPO 1710/1712 5SM BR SKC
     FM171400 20006KT P6SM SCT050=

USA.gov is the U.S. government's official web portal to all federal, state and local government web resources and services.